Data for 07/05/2005

Time Sea-Level Adjusted Pressure Absolute Pressure Temperature Relative Humidity Dew Point   
(mb) (inHg) (mb) (inHg) (C) (F) (%) (C) (F)
00:05 1022 30.18 851 25.13 15.1 59.2 42 2.3 36.1
00:10 1022 30.18 851 25.13 15.6 60 42 2.9 37.2
00:15 1022 30.18 851 25.13 15.4 59.8 43 3 37.4
00:20 1022 30.18 851 25.13 15.3 59.5 43 2.8 37
00:25 1022 30.18 851 25.13 15.3 59.6 42 2.7 36.9
00:30 1022 30.18 851 25.13 15.3 59.5 43 2.9 37.2
00:35 1022 30.18 851 25.13 14.9 58.9 46 3.5 38.3
00:40 1022 30.18 851 25.13 14.3 57.7 50 4 39.2
00:45 1022 30.18 851 25.13 13.7 56.7 54 4.7 40.4
00:50 1022 30.18 851 25.13 13.6 56.6 53 4.3 39.7
00:55 1022 30.18 851 25.13 13.8 56.9 53 4.4 39.9
01:00 1022 30.18 851 25.13 13.6 56.5 53 4.3 39.7
01:05 1022 30.18 851 25.13 13.6 56.5 53 4.3 39.7
01:10 1022 30.18 851 25.13 13.6 56.4 55 4.8 40.7
01:15 1022 30.18 851 25.13 13.4 56.1 54 4.3 39.8
01:20 1022 30.18 851 25.13 13 55.3 56 4.5 40.1
01:25 1022 30.18 851 25.13 12.6 54.6 56 4.1 39.4
01:30 1022 30.18 851 25.13 12.5 54.5 55 3.6 38.6
01:35 1022 30.18 851 25.13 12.9 55.1 53 3.6 38.5
01:40 1022 30.18 851 25.13 13.1 55.5 52 3.6 38.4
01:45 1022 30.18 851 25.13 13 55.4 53 3.7 38.7
01:50 1022 30.18 851 25.13 12.7 54.9 54 3.7 38.6
01:55 1022 30.18 851 25.13 12.8 55 52 3.2 37.7
02:00 1022 30.18 851 25.13 12.8 55 54 3.8 38.8
02:05 1022 30.18 851 25.13 12.4 54.2 56 3.8 38.8
02:10 1022 30.18 851 25.13 12.3 54.1 53 3.2 37.7
02:15 1022 30.18 851 25.13 12.5 54.5 53 3.3 38
02:20 1022 30.18 851 25.13 12.4 54.3 53 3.3 37.9
02:25 1022 30.18 851 25.13 12.4 54.3 52 2.8 37.1
02:30 1022 30.18 851 25.13 12.6 54.6 52 3.1 37.5
02:35 1022 30.18 851 25.13 12.6 54.6 51 2.8 37
02:40 1022 30.18 851 25.13 12.8 55 53 3.6 38.4
02:45 1022 30.18 851 25.13 12.6 54.7 53 3.2 37.8
02:50 1022 30.18 851 25.13 12.6 54.7 52 3 37.5
02:55 1022 30.18 851 25.13 12.5 54.6 53 3.4 38.1
03:00 1022 30.18 851 25.13 12.6 54.6 51 2.8 37.1
03:05 1022 30.18 851 25.13 12.8 55.1 49 2.4 36.3
03:10 1022 30.18 851 25.13 12.9 55.2 56 4.4 39.8
03:15 1022 30.18 851 25.13 12.7 54.8 52 3.1 37.6
03:20 1022 30.18 851 25.13 12.7 54.9 52 3.1 37.5
03:25 1022 30.18 851 25.13 12.7 54.9 52 3.1 37.6
03:30 1022 30.18 851 25.13 12.5 54.6 53 3.2 37.7
03:35 1022 30.18 851 25.13 12.3 54.2 53 3.2 37.7
03:40 1022 30.18 851 25.13 12.1 53.7 55 3.3 38
03:45 1022 30.18 851 25.13 11.7 53 57 3.6 38.4
03:50 1022 30.18 851 25.13 11.4 52.6 57 3.3 37.9
03:55 1022 30.18 851 25.13 11.8 53.2 54 2.9 37.2
04:00 1022 30.18 851 25.13 12.1 53.8 52 2.6 36.7
04:05 1022 30.18 851 25.13 12.6 54.7 51 2.9 37.3
04:10 1022 30.18 851 25.13 12.4 54.4 53 3.3 37.9
04:15 1022 30.18 851 25.13 12.3 54.2 53 3.2 37.7
04:20 1022 30.18 851 25.13 12.2 53.9 55 3.3 38
04:25 1022 30.18 851 25.13 11.9 53.5 54 3.1 37.6
04:30 1022 30.18 851 25.13 12 53.6 54 2.9 37.3
04:35 1022 30.18 851 25.13 11.8 53.2 57 3.6 38.5
04:40 1022 30.18 851 25.13 11.4 52.4 58 3.4 38.2
04:45 1022 30.18 851 25.13 11.2 52.1 58 3.2 37.8
04:50 1022 30.18 851 25.13 11.3 52.3 57 3.1 37.6
04:55 1022 30.18 851 25.13 11.3 52.4 58 3.3 38
05:00 1022 30.18 851 25.13 11.2 52.2 58 3.3 38
05:05 1022 30.18 851 25.13 11.5 52.6 55 2.9 37.1
05:10 1022 30.18 851 25.13 11.7 53.1 56 3.2 37.8
05:15 1022 30.18 851 25.13 11.7 53.1 56 3.2 37.8
05:20 1022 30.18 851 25.13 11.4 52.6 57 3.3 38
05:25 1022 30.18 851 25.13 11.1 52 60 3.6 38.4
05:30 1022 30.18 851 25.13 10.7 51.3 61 3.6 38.5
05:35 1022 30.18 851 25.13 10.5 50.8 63 3.8 38.9
05:40 1022 30.18 851 25.13 10.3 50.5 63 3.6 38.4
05:45 1022 30.18 851 25.13 10.3 50.5 62 3.3 38
05:50 1022 30.18 851 25.13 10.7 51.3 59 3.1 37.7
05:55 1022 30.18 851 25.13 11.2 52.1 57 3.1 37.6
06:00 1022 30.18 851 25.13 11.6 52.8 56 3.2 37.8
06:05 1022 30.18 851 25.13 11.7 53 56 3.2 37.7
06:10 1022 30.18 851 25.13 12 53.6 54 3.1 37.6
06:15 1022 30.18 851 25.13 12.2 54 53 3.1 37.6
06:20 1022 30.18 851 25.13 11.8 53.2 57 3.6 38.5
06:25 1022 30.18 851 25.13 11.2 52.1 58 3.3 37.9
06:30 1022 30.18 851 25.13 11.2 52.2 57 3.1 37.6
06:35 1022 30.18 851 25.13 11.5 52.8 57 3.4 38.1
06:40 1022 30.18 851 25.13 11.9 53.4 56 3.3 38
06:45 1022 30.18 851 25.13 12.1 53.7 55 3.3 38
06:50 1022 30.18 851 25.13 12.3 54.2 54 3.3 38
06:55 1022 30.18 851 25.13 12.6 54.7 54 3.6 38.5
07:00 1022 30.18 851 25.13 12.7 54.9 53 3.6 38.5
07:05 1022 30.18 851 25.13 12.8 55.1 53 3.7 38.6
07:10 1022 30.18 851 25.13 13 55.3 53 3.7 38.6
07:15 1022 30.18 851 25.13 13.2 55.7 52 3.5 38.3
07:20 1022 30.18 851 25.13 13.4 56 53 4 39.3
07:25 1022 30.18 851 25.13 13.6 56.5 53 4.2 39.6
07:30 1022 30.18 851 25.13 13.8 56.8 53 4.4 39.9
07:35 1022 30.18 851 25.13 13.8 56.9 56 5.2 41.4
07:40 1022 30.18 851 25.13 14 57.1 53 4.5 40.1
07:45 1022 30.18 851 25.13 14.3 57.7 52 4.7 40.5
07:50 1022 30.18 851 25.13 14.5 58.1 54 5.4 41.6
07:55 1022 30.18 851 25.13 14.9 58.8 53 5.4 41.7
08:00 1022 30.18 851 25.13 15.5 60 50 5.2 41.4
08:05 1022 30.18 851 25.13 16.1 60.9 48 5.2 41.3
08:10 1022 30.18 851 25.13 16.1 61 51 6 42.8
08:15 1022 30.18 851 25.13 16.2 61.1 52 6.4 43.5
08:20 1022 30.18 851 25.13 16.1 61 53 6.5 43.8
08:25 1022 30.18 851 25.13 16.6 61.8 51 6.4 43.5
08:30 1022 30.18 851 25.13 17.5 63.5 47 6.3 43.3
08:35 1022 30.18 851 25.13 17.9 64.1 45 5.8 42.4
08:40 1022 30.18 851 25.13 18.2 64.7 42 5.3 41.5
08:45 1022 30.18 851 25.13 18.5 65.3 42 5.5 41.8
08:50 1022 30.18 851 25.13 18.6 65.5 41 5.3 41.5
08:55 1022 30.18 851 25.13 18.7 65.6 40 5 41
09:00 1022 30.18 851 25.13 19.1 66.4 39 5 41
09:05 1022 30.18 851 25.13 19.4 67 41 6.1 43
09:10 1022 30.18 851 25.13 18.9 66.1 44 6.6 44
09:15 1022 30.18 851 25.13 19.4 67 42 6.2 43.2
09:20 1022 30.18 851 25.13 20.1 68.2 39 5.8 42.4
09:25 1022 30.18 851 25.13 20.7 69.2 38 6.1 42.9
09:30 1022 30.18 851 25.13 20.6 69.2 36 5.3 41.5
09:35 1022 30.18 851 25.13 20.9 69.7 35 5.1 41.1
09:40 1022 30.18 851 25.13 21.5 70.8 35 5.6 42
09:45 1022 30.18 851 25.13 21.5 70.7 32 4.4 39.9
09:50 1022 30.18 851 25.13 21.6 70.8 32 4.3 39.7
09:55 1022 30.18 851 25.13 22.2 72 29 3.4 38.1
10:00 1022 30.18 851 25.13 23.1 73.6 30 5 41
10:05 1022 30.18 851 25.13 23.6 74.5 31 5.7 42.3
10:10 1022 30.18 851 25.13 23.6 74.4 30 5.4 41.8
10:15 1021 30.15 851 25.13 22.9 73.2 32 5.6 42.1
10:20 1021 30.15 851 25.13 22.5 72.4 32 5.3 41.5
10:25 1021 30.15 851 25.13 21.9 71.5 34 5.5 41.9
10:30 1021 30.15 851 25.13 22.2 72 33 5.2 41.4
10:35 1021 30.15 851 25.13 22.8 73.1 33 5.8 42.5
10:40 1021 30.15 851 25.13 22.9 73.3 31 5.3 41.6
10:45 1021 30.15 851 25.13 23.1 73.5 31 5.4 41.8
10:50 1021 30.15 851 25.13 23.7 74.6 29 4.9 40.8
10:55 1021 30.15 850 25.1 23.8 74.9 29 5 41
11:00 1021 30.15 850 25.1 23 73.4 31 5.1 41.1
11:05 1021 30.15 850 25.1 23.6 74.5 29 4.6 40.3
11:10 1021 30.15 850 25.1 23.5 74.2 31 5.4 41.8
11:15 1021 30.15 850 25.1 23.3 73.9 30 5 41.1
11:20 1021 30.15 850 25.1 24.2 75.5 30 5.6 42.1
11:25 1021 30.15 850 25.1 23.7 74.6 31 5.9 42.5
11:30 1021 30.15 850 25.1 23.5 74.3 30 5.3 41.6
11:35 1021 30.15 850 25.1 23.8 74.9 30 5.6 42.1
11:40 1021 30.15 850 25.1 24.4 75.9 28 5 41
11:45 1021 30.15 850 25.1 23.8 74.8 30 5.6 42.1
11:50 1021 30.15 850 25.1 23.5 74.3 29 4.4 40
11:55 1021 30.15 850 25.1 23.5 74.3 29 4.5 40.1
12:00 1021 30.15 850 25.1 24.1 75.3 29 5 41
12:05 1021 30.15 850 25.1 23.5 74.3 30 5 41
12:10 1021 30.15 850 25.1 24.4 76 29 5.3 41.6
12:15 1021 30.15 850 25.1 24.4 75.9 27 4.6 40.3
12:20 1020 30.12 850 25.1 25.2 77.4 27 5 41.1
12:25 1020 30.12 850 25.1 26.2 79.1 26 5.4 41.8
12:30 1020 30.12 850 25.1 26 78.7 26 5.2 41.4
12:35 1020 30.12 850 25.1 25.6 78.1 27 5.3 41.5
12:40 1020 30.12 849 25.07 25.9 78.6 26 5.1 41.2
12:45 1020 30.12 849 25.07 26.1 79 27 6.1 43
12:50 1020 30.12 849 25.07 25.8 78.4 26 4.9 40.8
12:55 1020 30.12 849 25.07 26.2 79.2 24 4.5 40.1
13:00 1020 30.12 849 25.07 26.1 79 26 5.1 41.2
13:05 1020 30.12 849 25.07 27.1 80.7 24 5.1 41.3
13:10 1020 30.12 849 25.07 27 80.7 21 3.4 38.1
13:15 1020 30.12 849 25.07 26.5 79.7 22 3.6 38.5
13:20 1020 30.12 849 25.07 26.8 80.2 22 3.9 38.9
13:25 1020 30.12 849 25.07 26.7 80.1 24 4.7 40.4
13:30 1020 30.12 849 25.07 27.5 81.5 22 3.9 39
13:35 1020 30.12 849 25.07 27.1 80.8 23 4.2 39.6
13:40 1019 30.09 849 25.07 27.6 81.7 22 4.6 40.3
13:45 1019 30.09 849 25.07 28.1 82.6 21 4.2 39.5
13:50 1019 30.09 849 25.07 28.3 82.9 20 3.7 38.6
13:55 1019 30.09 849 25.07 27.8 82.1 18 1.9 35.4
14:00 1019 30.09 849 25.07 28.4 83.2 20 3.9 39
14:05 1019 30.09 848 25.04 28.9 84.1 19 3.4 38.1
14:10 1019 30.09 848 25.04 28.7 83.6 20 4.1 39.3
14:15 1019 30.09 848 25.04 28.5 83.4 21 4.6 40.2
14:20 1019 30.09 848 25.04 28.3 82.9 20 3.8 38.8
14:25 1019 30.09 848 25.04 27.9 82.3 21 4.1 39.3
14:30 1019 30.09 848 25.04 28.4 83 21 4.3 39.7
14:35 1019 30.09 848 25.04 28.9 84 20 4.2 39.6
14:40 1019 30.09 848 25.04 28 82.4 21 4 39.2
14:45 1019 30.09 848 25.04 27.7 81.8 21 3.6 38.4
14:50 1019 30.09 848 25.04 28.8 83.8 20 3.7 38.7
14:55 1019 30.09 848 25.04 29.3 84.7 19 3.9 39
15:00 1019 30.09 848 25.04 29.4 85 20 4.8 40.6
15:05 1019 30.09 848 25.04 28.3 82.9 22 4.9 40.8
15:10 1019 30.09 848 25.04 27.9 82.2 21 4.1 39.4
15:15 1018 30.06 848 25.04 28.3 82.9 21 4.4 39.9
15:20 1018 30.06 848 25.04 28.7 83.7 20 4 39.2
15:25 1018 30.06 848 25.04 29.1 84.3 18 3 37.4
15:30 1018 30.06 848 25.04 29.3 84.8 18 2.8 37
15:35 1018 30.06 847 25.01 29.9 85.8 18 3.5 38.3
15:40 1018 30.06 847 25.01 29.9 85.8 19 3.8 38.8
15:45 1018 30.06 847 25.01 29.9 85.8 18 3.6 38.5
15:50 1018 30.06 847 25.01 29.9 85.9 18 3.2 37.7
15:55 1018 30.06 847 25.01 29.2 84.5 17 2.4 36.3
16:00 1018 30.06 847 25.01 29.2 84.6 18 3 37.4
16:05 1018 30.06 847 25.01 29.6 85.3 18 3.3 38
16:10 1018 30.06 847 25.01 29.8 85.6 17 2.7 36.8
16:15 1018 30.06 847 25.01 29.6 85.3 16 1.5 34.7
16:20 1018 30.06 847 25.01 28.9 84.1 18 2.6 36.6
16:25 1018 30.06 847 25.01 29.7 85.4 17 2.5 36.4
16:30 1018 30.06 847 25.01 29.7 85.5 16 1.5 34.7
16:35 1018 30.06 847 25.01 28.8 83.8 18 2.5 36.6
16:40 1018 30.06 847 25.01 28.7 83.7 18 2.6 36.6
16:45 1018 30.06 847 25.01 29 84.1 18 2.4 36.3
16:50 1018 30.06 847 25.01 29.1 84.3 18 3 37.3
16:55 1018 30.06 847 25.01 29.1 84.3 17 1.8 35.2
17:00 1018 30.06 847 25.01 28.9 84.1 16 1.2 34.1
17:05 1018 30.06 847 25.01 29.2 84.6 16 1.3 34.4
17:10 1018 30.06 847 25.01 28.9 84.1 16 1.1 34
17:15 1018 30.06 847 25.01 29.6 85.3 16 1.2 34.1
17:20 1018 30.06 847 25.01 29.4 84.9 17 2 35.5
17:25 1018 30.06 847 25.01 29 84.2 18 2.5 36.5
17:30 1018 30.06 847 25.01 28.7 83.7 18 2.3 36.1
17:35 1018 30.06 847 25.01 29 84.1 19 3.3 37.9
17:40 1018 30.06 847 25.01 28.4 83.1 19 2.9 37.2
17:45 1018 30.06 847 25.01 28 82.4 19 2.8 37
17:50 1018 30.06 847 25.01 28.5 83.2 19 2.6 36.7
17:55 1017 30.03 847 25.01 28.7 83.7 18 2.7 36.9
18:00 1017 30.03 847 25.01 28.9 83.9 19 3 37.4
18:05 1017 30.03 847 25.01 28.9 84 18 2.8 37.1
18:10 1017 30.03 847 25.01 29.1 84.4 19 3.4 38.1
18:15 1017 30.03 847 25.01 28.7 83.7 19 3.2 37.8
18:20 1017 30.03 847 25.01 28.4 83.2 20 3.3 37.9
18:25 1017 30.03 847 25.01 29.4 84.8 19 3.4 38.1
18:30 1017 30.03 846 24.98 29.7 85.5 19 3.7 38.6
18:35 1017 30.03 847 25.01 29.9 85.8 18 3.3 38
18:40 1017 30.03 846 24.98 30.2 86.3 19 4 39.2
18:45 1017 30.03 846 24.98 29.5 85 19 4 39.2
18:50 1017 30.03 846 24.98 28.6 83.5 19 3.4 38.1
18:55 1017 30.03 846 24.98 28.5 83.3 20 3.7 38.6
19:00 1017 30.03 846 24.98 28.5 83.4 19 3.2 37.8
19:05 1017 30.03 846 24.98 28.9 84.1 19 3.3 37.9
19:10 1017 30.03 846 24.98 29.3 84.8 19 3.4 38.2
19:15 1017 30.03 846 24.98 28.9 83.9 20 3.8 38.9
19:20 1017 30.03 846 24.98 28.4 83.1 20 3.5 38.2
19:25 1017 30.03 846 24.98 28.3 82.9 21 4.1 39.3
19:30 1017 30.03 846 24.98 27.7 81.9 22 4.4 39.9
19:35 1017 30.03 846 24.98 27.6 81.6 22 4 39.2
19:40 1017 30.03 846 24.98 27.5 81.6 21 3.9 39
19:45 1017 30.03 846 24.98 28 82.3 21 4.1 39.4
19:50 1017 30.03 846 24.98 28.3 83 21 4 39.3
19:55 1017 30.03 846 24.98 28.2 82.8 21 4 39.2
20:00 1017 30.03 846 24.98 28 82.4 21 3.8 38.9
20:05 1017 30.03 846 24.98 27.6 81.6 22 4 39.2
20:10 1017 30.03 846 24.98 27.4 81.2 21 3.5 38.2
20:15 1017 30.03 846 24.98 27.2 81 22 4.1 39.4
20:20 1017 30.03 846 24.98 27.1 80.8 23 4.4 40
20:25 1017 30.03 846 24.98 27 80.6 22 3.7 38.7
20:30 1017 30.03 846 24.98 27 80.6 23 4.3 39.8
20:35 1017 30.03 846 24.98 26.8 80.3 24 4.7 40.5
20:40 1017 30.03 846 24.98 26.6 79.8 25 5.2 41.4
20:45 1017 30.03 846 24.98 26.4 79.5 26 5.6 42
20:50 1017 30.03 846 24.98 26.1 79 30 7.4 45.3
20:55 1017 30.03 846 24.98 25.6 78 32 8 46.5
21:00 1017 30.03 846 24.98 25.3 77.5 35 8.9 48
21:05 1017 30.03 846 24.98 24.8 76.7 38 9.8 49.7
21:10 1017 30.03 846 24.98 24.4 75.9 42 10.8 51.4
21:15 1017 30.03 846 24.98 23.8 74.8 43 10.8 51.4
21:20 1017 30.03 846 24.98 23.3 73.9 42 10 49.9
21:25 1017 30.03 846 24.98 23.1 73.6 47 11.2 52.2
21:30 1017 30.03 846 24.98 22.9 73.2 43 9.8 49.7
21:35 1017 30.03 846 24.98 22.2 72 45 9.9 49.8
21:40 1017 30.03 847 25.01 21.8 71.3 50 11.1 51.9
21:45 1017 30.03 847 25.01 21.5 70.6 45 9.2 48.6
21:50 1017 30.03 847 25.01 21.1 70 46 9.3 48.7
21:55 1017 30.03 847 25.01 20.8 69.4 50 10.2 50.4
22:00 1017 30.03 847 25.01 20.8 69.4 47 9.3 48.8
22:05 1018 30.06 847 25.01 20.6 69 47 9 48.2
22:10 1018 30.06 847 25.01 20.7 69.3 38 6 42.7
22:15 1018 30.06 847 25.01 21.6 70.9 36 6.2 43.2
22:20 1018 30.06 847 25.01 21.8 71.3 37 6.5 43.7
22:25 1018 30.06 847 25.01 21.4 70.4 40 7.4 45.3
22:30 1018 30.06 847 25.01 20.9 69.5 41 7.2 44.9
22:35 1018 30.06 847 25.01 20.6 69 40 6.7 44.1
22:40 1018 30.06 847 25.01 20.7 69.3 39 6.3 43.3
22:45 1018 30.06 847 25.01 20.6 69.1 42 7.5 45.4
22:50 1018 30.06 847 25.01 20.3 68.5 43 7.3 45.1
22:55 1017 30.03 847 25.01 20 68.1 43 7.4 45.3
23:00 1017 30.03 847 25.01 19.7 67.5 44 7.3 45.2
23:05 1017 30.03 847 25.01 19.5 67.2 43 6.9 44.4
23:10 1017 30.03 847 25.01 19.7 67.5 43 6.8 44.2
23:15 1017 30.03 847 25.01 19.6 67.3 43 6.9 44.4
23:20 1017 30.03 847 25.01 19.5 67.1 44 7 44.5
23:25 1017 30.03 846 24.98 19.5 67.1 42 6.5 43.7
23:30 1017 30.03 846 24.98 19.3 66.8 44 7 44.7
23:35 1017 30.03 846 24.98 19.4 66.8 41 6.1 42.9
23:40 1017 30.03 846 24.98 19.9 67.7 44 7.3 45.2
23:45 1017 30.03 847 25.01 19.6 67.2 42 6.5 43.6
23:50 1017 30.03 846 24.98 19.5 67 43 6.7 44.1
23:55 1017 30.03 846 24.98 19.4 66.8 46 7.5 45.5
24:00 1017 30.03 846 24.98 19.1 66.3 45 6.9 44.4